Hlavní strana
METAR-TAF:

METAR-TAF

Letiště :

Chartúm, Súdán

zeměpisná šířka: 15-36N, zeměpisná délka: 032-33E, výška: 382 m

Aktuální stav počasí

Zpráva byla vytvořena před 20 minutami, v 01:30 UTC
Severoseverozápadní vítr 14 kt
Teplota 16°C
Vlhkost vzduchu 42%
Tlak 1017 hPa
Viditelnost 10 km a více
Žádná oblačnost pod 1500 m, nevyskytují se cumulonimby.

METAR: HSSS 190130Z 33014KT CAVOK 16/03 Q1017 NOSIG

Čas: 03:50 (01:50 UTC)

Předpověď počasí

Zpráva byla vytvořena před 2 hodinami a 50 minutami, v 23:00 UTC
Předpověď platná od 19 v 00 UTC do 20 v 06 UTC
Severní vítr 12 kt s nárazy do 22 kt
Viditelnost 10 km a více
Žádná oblačnost pod 1500 m, nevyskytují se cumulonimby.
Pravděpodobnost 30%
od 19 v 03 UTC do 19 v 12 UTC
Viditelnost: 6000 m

TAF: HSSS 182300Z 1900/2006 36012G22KT CAVOK PROB30 1903/1912 6000 NSC

Stav a předpovědi počasí z více než 4 000 letišť (zprávy METAR a TAF).

Červené a žluté tečky na mapě představují dostupné meteorologické stanice.

Když kurzor umístíte na tečku, zobrazí se název stanice.

Pak kliknutím zobrazíte stav a předpověď počasí.

Chcete-li změnit mapu, kliknutím na zelené tlačítko se znaménkem +mapu přiblížíte, kliknutím na zelené tlačítko se znaménkem – mapu oddálíte a kliknutím na zelené šipky přejdete na sousední mapy.


METAR-TAF: